sensor_id;sensor_type;location;lat;lon;timestamp;P1;durP1;ratioP1;P2;durP2;ratioP2
38083;SDS011;23894;51.466;7.444;2022-09-28T00:01:52;20.95;;;11.95;;
38083;SDS011;23894;51.466;7.444;2022-09-28T00:03:54;12.00;;;8.45;;
38083;SDS011;23894;51.466;7.444;2022-09-28T00:06:03;13.73;;;9.38;;
38083;SDS011;23894;51.466;7.444;2022-09-28T00:08:04;14.32;;;9.20;;
38083;SDS011;23894;51.466;7.444;2022-09-28T00:10:05;20.65;;;12.38;;
38083;SDS011;23894;51.466;7.444;2022-09-28T00:12:07;20.55;;;12.48;;
38083;SDS011;23894;51.466;7.444;2022-09-28T00:14:08;17.33;;;10.18;;
38083;SDS011;23894;51.466;7.444;2022-09-28T00:16:12;18.50;;;10.73;;
38083;SDS011;23894;51.466;7.444;2022-09-28T00:18:14;17.33;;;11.48;;
38083;SDS011;23894;51.466;7.444;2022-09-28T00:20:15;25.52;;;12.70;;
38083;SDS011;23894;51.466;7.444;2022-09-28T00:22:17;26.63;;;13.77;;
38083;SDS011;23894;51.466;7.444;2022-09-28T00:24:18;18.35;;;11.02;;
38083;SDS011;23894;51.466;7.444;2022-09-28T00:26:19;19.20;;;12.20;;
38083;SDS011;23894;51.466;7.444;2022-09-28T00:28:20;23.88;;;13.40;;
38083;SDS011;23894;51.466;7.444;2022-09-28T00:30:21;13.07;;;9.02;;
38083;SDS011;23894;51.466;7.444;2022-09-28T00:32:22;15.52;;;9.98;;
38083;SDS011;23894;51.466;7.444;2022-09-28T00:34:27;24.25;;;12.35;;
38083;SDS011;23894;51.466;7.444;2022-09-28T00:36:31;22.10;;;12.38;;
38083;SDS011;23894;51.466;7.444;2022-09-28T00:38:32;16.95;;;10.30;;
38083;SDS011;23894;51.466;7.444;2022-09-28T00:40:33;21.00;;;12.55;;
38083;SDS011;23894;51.466;7.444;2022-09-28T00:42:34;16.02;;;11.10;;
38083;SDS011;23894;51.466;7.444;2022-09-28T00:44:42;13.65;;;9.15;;
38083;SDS011;23894;51.466;7.444;2022-09-28T00:46:43;14.10;;;9.13;;
38083;SDS011;23894;51.466;7.444;2022-09-28T00:48:55;12.82;;;8.40;;
38083;SDS011;23894;51.466;7.444;2022-09-28T00:50:58;16.05;;;10.10;;
38083;SDS011;23894;51.466;7.444;2022-09-28T00:53:02;14.30;;;8.85;;
38083;SDS011;23894;51.466;7.444;2022-09-28T00:55:05;12.68;;;8.35;;
38083;SDS011;23894;51.466;7.444;2022-09-28T00:57:07;14.90;;;8.55;;
38083;SDS011;23894;51.466;7.444;2022-09-28T00:59:09;17.63;;;9.90;;
38083;SDS011;23894;51.466;7.444;2022-09-28T01:03:11;13.88;;;8.25;;
38083;SDS011;23894;51.466;7.444;2022-09-28T01:05:13;14.48;;;8.43;;
38083;SDS011;23894;51.466;7.444;2022-09-28T01:07:14;18.60;;;9.52;;
38083;SDS011;23894;51.466;7.444;2022-09-28T01:09:17;13.15;;;8.00;;
38083;SDS011;23894;51.466;7.444;2022-09-28T01:11:19;13.07;;;9.23;;
38083;SDS011;23894;51.466;7.444;2022-09-28T01:13:20;12.73;;;8.90;;
38083;SDS011;23894;51.466;7.444;2022-09-28T01:15:23;14.98;;;9.30;;
38083;SDS011;23894;51.466;7.444;2022-09-28T01:17:31;13.88;;;9.02;;
38083;SDS011;23894;51.466;7.444;2022-09-28T01:21:49;14.20;;;8.57;;
38083;SDS011;23894;51.466;7.444;2022-09-28T01:26:32;18.88;;;10.15;;
38083;SDS011;23894;51.466;7.444;2022-09-28T01:28:31;14.45;;;9.02;;
38083;SDS011;23894;51.466;7.444;2022-09-28T01:30:34;16.33;;;9.70;;
38083;SDS011;23894;51.466;7.444;2022-09-28T01:36:42;17.48;;;9.43;;
38083;SDS011;23894;51.466;7.444;2022-09-28T01:38:47;17.65;;;9.52;;
38083;SDS011;23894;51.466;7.444;2022-09-28T01:40:49;15.88;;;9.75;;
38083;SDS011;23894;51.466;7.444;2022-09-28T01:42:53;14.40;;;9.45;;
38083;SDS011;23894;51.466;7.444;2022-09-28T01:44:56;18.63;;;10.77;;
38083;SDS011;23894;51.466;7.444;2022-09-28T01:46:58;21.08;;;11.40;;
38083;SDS011;23894;51.466;7.444;2022-09-28T01:49:08;19.77;;;10.77;;
38083;SDS011;23894;51.466;7.444;2022-09-28T01:51:13;21.90;;;12.25;;
38083;SDS011;23894;51.466;7.444;2022-09-28T01:53:21;28.25;;;13.55;;
38083;SDS011;23894;51.466;7.444;2022-09-28T01:55:33;16.33;;;10.52;;
38083;SDS011;23894;51.466;7.444;2022-09-28T01:57:37;16.10;;;10.20;;
38083;SDS011;23894;51.466;7.444;2022-09-28T01:59:42;16.98;;;10.45;;
38083;SDS011;23894;51.466;7.444;2022-09-28T02:01:50;15.45;;;10.25;;
38083;SDS011;23894;51.466;7.444;2022-09-28T02:05:55;16.42;;;10.52;;
38083;SDS011;23894;51.466;7.444;2022-09-28T02:08:13;18.02;;;11.40;;
38083;SDS011;23894;51.466;7.444;2022-09-28T02:10:17;18.23;;;11.35;;
38083;SDS011;23894;51.466;7.444;2022-09-28T02:12:22;20.40;;;12.10;;
38083;SDS011;23894;51.466;7.444;2022-09-28T02:14:25;23.42;;;12.70;;
38083;SDS011;23894;51.466;7.444;2022-09-28T02:16:33;18.17;;;11.82;;
38083;SDS011;23894;51.466;7.444;2022-09-28T02:18:35;17.08;;;11.73;;
38083;SDS011;23894;51.466;7.444;2022-09-28T02:20:37;17.70;;;10.65;;
38083;SDS011;23894;51.466;7.444;2022-09-28T02:22:48;16.60;;;11.75;;
38083;SDS011;23894;51.466;7.444;2022-09-28T02:24:55;21.55;;;11.77;;
38083;SDS011;23894;51.466;7.444;2022-09-28T02:26:57;23.83;;;13.80;;
38083;SDS011;23894;51.466;7.444;2022-09-28T02:29:00;19.83;;;12.65;;
38083;SDS011;23894;51.466;7.444;2022-09-28T02:31:01;18.23;;;11.18;;
38083;SDS011;23894;51.466;7.444;2022-09-28T02:33:02;24.48;;;13.00;;
38083;SDS011;23894;51.466;7.444;2022-09-28T02:35:06;18.50;;;11.32;;
38083;SDS011;23894;51.466;7.444;2022-09-28T02:37:07;15.43;;;11.88;;
38083;SDS011;23894;51.466;7.444;2022-09-28T02:39:12;16.08;;;11.38;;
38083;SDS011;23894;51.466;7.444;2022-09-28T02:43:31;17.85;;;12.48;;
38083;SDS011;23894;51.466;7.444;2022-09-28T02:50:08;25.40;;;14.32;;
38083;SDS011;23894;51.466;7.444;2022-09-28T02:54:30;19.63;;;12.80;;
38083;SDS011;23894;51.466;7.444;2022-09-28T02:58:41;18.88;;;14.52;;
38083;SDS011;23894;51.466;7.444;2022-09-28T03:00:52;18.60;;;13.93;;
38083;SDS011;23894;51.466;7.444;2022-09-28T03:05:10;21.75;;;15.75;;
38083;SDS011;23894;51.466;7.444;2022-09-28T03:09:20;20.40;;;14.88;;
38083;SDS011;23894;51.466;7.444;2022-09-28T03:11:36;27.83;;;16.33;;
38083;SDS011;23894;51.466;7.444;2022-09-28T03:13:38;29.98;;;17.38;;
38083;SDS011;23894;51.466;7.444;2022-09-28T03:19:41;25.17;;;16.33;;
38083;SDS011;23894;51.466;7.444;2022-09-28T03:21:42;26.50;;;17.70;;
38083;SDS011;23894;51.466;7.444;2022-09-28T03:23:43;26.00;;;18.85;;
38083;SDS011;23894;51.466;7.444;2022-09-28T03:25:46;25.02;;;18.75;;
38083;SDS011;23894;51.466;7.444;2022-09-28T03:27:47;29.73;;;20.48;;
38083;SDS011;23894;51.466;7.444;2022-09-28T03:29:48;27.05;;;20.05;;
38083;SDS011;23894;51.466;7.444;2022-09-28T03:31:49;27.42;;;21.05;;
38083;SDS011;23894;51.466;7.444;2022-09-28T03:33:50;35.47;;;22.95;;
38083;SDS011;23894;51.466;7.444;2022-09-28T03:35:52;37.92;;;23.80;;
38083;SDS011;23894;51.466;7.444;2022-09-28T03:37:53;32.70;;;22.50;;
38083;SDS011;23894;51.466;7.444;2022-09-28T03:39:55;41.08;;;25.85;;
38083;SDS011;23894;51.466;7.444;2022-09-28T03:41:56;48.25;;;27.38;;
38083;SDS011;23894;51.466;7.444;2022-09-28T03:43:59;39.78;;;25.20;;
38083;SDS011;23894;51.466;7.444;2022-09-28T03:46:00;39.35;;;25.13;;
38083;SDS011;23894;51.466;7.444;2022-09-28T03:50:03;35.90;;;23.88;;
38083;SDS011;23894;51.466;7.444;2022-09-28T03:52:04;30.88;;;23.90;;
38083;SDS011;23894;51.466;7.444;2022-09-28T03:54:05;36.67;;;23.48;;
38083;SDS011;23894;51.466;7.444;2022-09-28T03:56:15;37.00;;;25.25;;
38083;SDS011;23894;51.466;7.444;2022-09-28T03:58:16;46.38;;;27.60;;
38083;SDS011;23894;51.466;7.444;2022-09-28T04:00:17;37.70;;;26.65;;
38083;SDS011;23894;51.466;7.444;2022-09-28T04:04:19;37.40;;;27.17;;
38083;SDS011;23894;51.466;7.444;2022-09-28T04:06:20;39.28;;;28.08;;
38083;SDS011;23894;51.466;7.444;2022-09-28T04:08:22;41.92;;;30.10;;
38083;SDS011;23894;51.466;7.444;2022-09-28T04:12:24;38.33;;;27.48;;
38083;SDS011;23894;51.466;7.444;2022-09-28T04:14:25;42.28;;;29.70;;
38083;SDS011;23894;51.466;7.444;2022-09-28T04:16:26;46.28;;;30.50;;
38083;SDS011;23894;51.466;7.444;2022-09-28T04:18:27;38.38;;;30.10;;
38083;SDS011;23894;51.466;7.444;2022-09-28T04:20:28;37.00;;;27.60;;
38083;SDS011;23894;51.466;7.444;2022-09-28T04:22:30;35.92;;;27.70;;
38083;SDS011;23894;51.466;7.444;2022-09-28T04:24:31;39.80;;;27.77;;
38083;SDS011;23894;51.466;7.444;2022-09-28T04:26:32;35.30;;;26.40;;
38083;SDS011;23894;51.466;7.444;2022-09-28T04:28:33;39.58;;;26.42;;
38083;SDS011;23894;51.466;7.444;2022-09-28T04:30:53;40.53;;;27.23;;
38083;SDS011;23894;51.466;7.444;2022-09-28T04:32:54;44.10;;;28.42;;
38083;SDS011;23894;51.466;7.444;2022-09-28T04:34:55;34.78;;;26.58;;
38083;SDS011;23894;51.466;7.444;2022-09-28T04:36:56;45.08;;;28.73;;
38083;SDS011;23894;51.466;7.444;2022-09-28T04:38:57;49.90;;;28.63;;
38083;SDS011;23894;51.466;7.444;2022-09-28T04:40:59;42.35;;;29.23;;
38083;SDS011;23894;51.466;7.444;2022-09-28T04:43:00;49.30;;;30.77;;
38083;SDS011;23894;51.466;7.444;2022-09-28T04:45:01;37.83;;;29.27;;
38083;SDS011;23894;51.466;7.444;2022-09-28T04:47:03;43.53;;;30.45;;
38083;SDS011;23894;51.466;7.444;2022-09-28T04:49:04;51.53;;;31.10;;
38083;SDS011;23894;51.466;7.444;2022-09-28T04:51:05;48.30;;;30.73;;
38083;SDS011;23894;51.466;7.444;2022-09-28T04:53:06;44.85;;;30.73;;
38083;SDS011;23894;51.466;7.444;2022-09-28T04:55:08;50.33;;;30.63;;
38083;SDS011;23894;51.466;7.444;2022-09-28T04:57:11;46.25;;;29.88;;
38083;SDS011;23894;51.466;7.444;2022-09-28T04:59:12;42.50;;;27.90;;
38083;SDS011;23894;51.466;7.444;2022-09-28T05:01:15;43.22;;;29.92;;
38083;SDS011;23894;51.466;7.444;2022-09-28T05:03:16;50.17;;;32.10;;
38083;SDS011;23894;51.466;7.444;2022-09-28T05:05:17;42.28;;;31.20;;
38083;SDS011;23894;51.466;7.444;2022-09-28T05:07:19;46.55;;;32.75;;
38083;SDS011;23894;51.466;7.444;2022-09-28T05:09:21;51.70;;;34.83;;
38083;SDS011;23894;51.466;7.444;2022-09-28T05:11:22;51.50;;;34.55;;
38083;SDS011;23894;51.466;7.444;2022-09-28T05:15:24;53.60;;;33.60;;
38083;SDS011;23894;51.466;7.444;2022-09-28T05:17:24;59.63;;;34.90;;
38083;SDS011;23894;51.466;7.444;2022-09-28T05:19:25;46.90;;;34.90;;
38083;SDS011;23894;51.466;7.444;2022-09-28T05:21:26;45.55;;;32.42;;
38083;SDS011;23894;51.466;7.444;2022-09-28T05:23:28;49.40;;;33.60;;
38083;SDS011;23894;51.466;7.444;2022-09-28T05:25:29;49.88;;;33.70;;
38083;SDS011;23894;51.466;7.444;2022-09-28T05:27:30;61.10;;;34.70;;
38083;SDS011;23894;51.466;7.444;2022-09-28T05:29:31;54.03;;;34.03;;
38083;SDS011;23894;51.466;7.444;2022-09-28T05:31:32;50.78;;;32.75;;
38083;SDS011;23894;51.466;7.444;2022-09-28T05:33:33;64.97;;;35.60;;
38083;SDS011;23894;51.466;7.444;2022-09-28T05:35:35;44.88;;;32.25;;
38083;SDS011;23894;51.466;7.444;2022-09-28T05:37:36;41.00;;;29.58;;
38083;SDS011;23894;51.466;7.444;2022-09-28T05:39:38;43.53;;;30.17;;
38083;SDS011;23894;51.466;7.444;2022-09-28T05:43:40;44.67;;;30.65;;
38083;SDS011;23894;51.466;7.444;2022-09-28T05:45:43;49.63;;;30.80;;
38083;SDS011;23894;51.466;7.444;2022-09-28T05:47:43;47.05;;;30.83;;
38083;SDS011;23894;51.466;7.444;2022-09-28T05:51:46;55.47;;;33.17;;
38083;SDS011;23894;51.466;7.444;2022-09-28T05:53:47;49.30;;;31.75;;
38083;SDS011;23894;51.466;7.444;2022-09-28T05:55:47;45.90;;;31.13;;
38083;SDS011;23894;51.466;7.444;2022-09-28T05:57:48;47.15;;;31.73;;
38083;SDS011;23894;51.466;7.444;2022-09-28T05:59:49;48.13;;;32.58;;
38083;SDS011;23894;51.466;7.444;2022-09-28T06:01:50;44.90;;;31.63;;
38083;SDS011;23894;51.466;7.444;2022-09-28T06:03:51;46.25;;;31.63;;
38083;SDS011;23894;51.466;7.444;2022-09-28T06:05:52;41.38;;;30.85;;
38083;SDS011;23894;51.466;7.444;2022-09-28T06:07:54;54.58;;;35.00;;
38083;SDS011;23894;51.466;7.444;2022-09-28T06:09:55;41.13;;;32.70;;
38083;SDS011;23894;51.466;7.444;2022-09-28T06:11:57;46.80;;;33.05;;
38083;SDS011;23894;51.466;7.444;2022-09-28T06:13:58;50.38;;;33.90;;
38083;SDS011;23894;51.466;7.444;2022-09-28T06:15:59;52.75;;;34.35;;
38083;SDS011;23894;51.466;7.444;2022-09-28T06:18:04;46.95;;;33.13;;
38083;SDS011;23894;51.466;7.444;2022-09-28T06:20:06;47.15;;;32.15;;
38083;SDS011;23894;51.466;7.444;2022-09-28T06:24:07;43.63;;;31.00;;
38083;SDS011;23894;51.466;7.444;2022-09-28T06:26:08;49.53;;;33.22;;
38083;SDS011;23894;51.466;7.444;2022-09-28T06:28:10;43.90;;;33.00;;
38083;SDS011;23894;51.466;7.444;2022-09-28T06:30:12;44.60;;;32.60;;
38083;SDS011;23894;51.466;7.444;2022-09-28T06:32:13;39.30;;;29.65;;
38083;SDS011;23894;51.466;7.444;2022-09-28T06:34:14;42.45;;;31.52;;
38083;SDS011;23894;51.466;7.444;2022-09-28T06:36:15;41.45;;;30.35;;
38083;SDS011;23894;51.466;7.444;2022-09-28T06:38:16;42.40;;;30.00;;
38083;SDS011;23894;51.466;7.444;2022-09-28T06:40:18;43.30;;;30.90;;
38083;SDS011;23894;51.466;7.444;2022-09-28T06:42:19;44.90;;;31.80;;
38083;SDS011;23894;51.466;7.444;2022-09-28T06:44:20;43.55;;;30.98;;
38083;SDS011;23894;51.466;7.444;2022-09-28T06:46:21;35.55;;;28.27;;
38083;SDS011;23894;51.466;7.444;2022-09-28T06:48:22;38.30;;;28.95;;
38083;SDS011;23894;51.466;7.444;2022-09-28T06:50:30;39.80;;;29.40;;
38083;SDS011;23894;51.466;7.444;2022-09-28T06:52:31;37.22;;;29.20;;
38083;SDS011;23894;51.466;7.444;2022-09-28T06:54:32;38.00;;;29.05;;
38083;SDS011;23894;51.466;7.444;2022-09-28T06:56:33;40.28;;;30.75;;
38083;SDS011;23894;51.466;7.444;2022-09-28T06:58:34;44.10;;;32.42;;
38083;SDS011;23894;51.466;7.444;2022-09-28T07:00:35;37.65;;;29.80;;
38083;SDS011;23894;51.466;7.444;2022-09-28T07:02:36;46.88;;;33.28;;
38083;SDS011;23894;51.466;7.444;2022-09-28T07:04:38;43.90;;;32.65;;
38083;SDS011;23894;51.466;7.444;2022-09-28T07:06:44;44.33;;;32.67;;
38083;SDS011;23894;51.466;7.444;2022-09-28T07:08:46;41.97;;;32.22;;
38083;SDS011;23894;51.466;7.444;2022-09-28T07:10:47;47.53;;;33.85;;
38083;SDS011;23894;51.466;7.444;2022-09-28T07:12:49;42.78;;;34.08;;
38083;SDS011;23894;51.466;7.444;2022-09-28T07:14:50;42.78;;;33.05;;
38083;SDS011;23894;51.466;7.444;2022-09-28T07:16:56;45.50;;;33.72;;
38083;SDS011;23894;51.466;7.444;2022-09-28T07:18:57;42.78;;;34.40;;
38083;SDS011;23894;51.466;7.444;2022-09-28T07:20:58;42.28;;;34.53;;
38083;SDS011;23894;51.466;7.444;2022-09-28T07:23:02;47.13;;;35.75;;
38083;SDS011;23894;51.466;7.444;2022-09-28T07:25:05;50.60;;;35.80;;
38083;SDS011;23894;51.466;7.444;2022-09-28T07:27:06;49.60;;;36.90;;
38083;SDS011;23894;51.466;7.444;2022-09-28T07:29:08;57.70;;;37.97;;
38083;SDS011;23894;51.466;7.444;2022-09-28T07:31:09;57.00;;;39.08;;
38083;SDS011;23894;51.466;7.444;2022-09-28T07:35:11;58.90;;;35.65;;
38083;SDS011;23894;51.466;7.444;2022-09-28T07:37:13;54.85;;;37.20;;
38083;SDS011;23894;51.466;7.444;2022-09-28T07:39:14;51.17;;;35.40;;
38083;SDS011;23894;51.466;7.444;2022-09-28T07:41:15;61.08;;;40.65;;
38083;SDS011;23894;51.466;7.444;2022-09-28T07:43:21;60.85;;;39.00;;
38083;SDS011;23894;51.466;7.444;2022-09-28T07:47:23;52.83;;;35.50;;
38083;SDS011;23894;51.466;7.444;2022-09-28T07:49:27;54.92;;;38.70;;
38083;SDS011;23894;51.466;7.444;2022-09-28T07:51:29;50.80;;;37.05;;
38083;SDS011;23894;51.466;7.444;2022-09-28T07:53:30;52.88;;;38.05;;
38083;SDS011;23894;51.466;7.444;2022-09-28T07:55:31;56.58;;;40.83;;
38083;SDS011;23894;51.466;7.444;2022-09-28T07:57:32;57.60;;;41.72;;
38083;SDS011;23894;51.466;7.444;2022-09-28T07:59:34;57.75;;;41.60;;
38083;SDS011;23894;51.466;7.444;2022-09-28T08:01:35;57.63;;;39.95;;
38083;SDS011;23894;51.466;7.444;2022-09-28T08:03:36;63.38;;;42.97;;
38083;SDS011;23894;51.466;7.444;2022-09-28T08:05:37;68.43;;;44.08;;
38083;SDS011;23894;51.466;7.444;2022-09-28T08:07:41;64.95;;;44.25;;
38083;SDS011;23894;51.466;7.444;2022-09-28T08:09:42;66.15;;;43.28;;
38083;SDS011;23894;51.466;7.444;2022-09-28T08:11:43;59.22;;;42.75;;
38083;SDS011;23894;51.466;7.444;2022-09-28T08:13:44;63.25;;;42.58;;
38083;SDS011;23894;51.466;7.444;2022-09-28T08:15:46;60.53;;;40.83;;
38083;SDS011;23894;51.466;7.444;2022-09-28T08:17:50;52.60;;;39.65;;
38083;SDS011;23894;51.466;7.444;2022-09-28T08:19:51;57.30;;;40.97;;
38083;SDS011;23894;51.466;7.444;2022-09-28T08:22:11;56.25;;;39.45;;
38083;SDS011;23894;51.466;7.444;2022-09-28T08:24:12;60.13;;;40.17;;
38083;SDS011;23894;51.466;7.444;2022-09-28T08:26:14;55.97;;;41.50;;
38083;SDS011;23894;51.466;7.444;2022-09-28T08:30:16;54.90;;;39.30;;
38083;SDS011;23894;51.466;7.444;2022-09-28T08:32:18;57.55;;;40.38;;
38083;SDS011;23894;51.466;7.444;2022-09-28T08:34:20;62.17;;;42.70;;
38083;SDS011;23894;51.466;7.444;2022-09-28T08:36:21;72.10;;;45.42;;
38083;SDS011;23894;51.466;7.444;2022-09-28T08:38:23;58.60;;;43.22;;
38083;SDS011;23894;51.466;7.444;2022-09-28T08:40:24;61.97;;;45.65;;
38083;SDS011;23894;51.466;7.444;2022-09-28T08:42:29;63.45;;;46.10;;
38083;SDS011;23894;51.466;7.444;2022-09-28T08:44:36;73.50;;;46.88;;
38083;SDS011;23894;51.466;7.444;2022-09-28T08:46:40;60.80;;;43.33;;
38083;SDS011;23894;51.466;7.444;2022-09-28T08:48:47;68.53;;;45.67;;
38083;SDS011;23894;51.466;7.444;2022-09-28T08:50:57;66.90;;;45.67;;
38083;SDS011;23894;51.466;7.444;2022-09-28T08:53:02;75.38;;;46.97;;
38083;SDS011;23894;51.466;7.444;2022-09-28T08:55:07;64.00;;;46.17;;
38083;SDS011;23894;51.466;7.444;2022-09-28T08:57:18;62.92;;;46.00;;
38083;SDS011;23894;51.466;7.444;2022-09-28T08:59:24;61.47;;;45.05;;
38083;SDS011;23894;51.466;7.444;2022-09-28T09:01:27;62.28;;;45.78;;
38083;SDS011;23894;51.466;7.444;2022-09-28T09:03:31;80.95;;;51.55;;
38083;SDS011;23894;51.466;7.444;2022-09-28T09:05:54;60.03;;;46.60;;
38083;SDS011;23894;51.466;7.444;2022-09-28T09:21:15;57.08;;;41.88;;
38083;SDS011;23894;51.466;7.444;2022-09-28T09:29:49;52.20;;;42.50;;
38083;SDS011;23894;51.466;7.444;2022-09-28T09:38:19;51.35;;;41.17;;
38083;SDS011;23894;51.466;7.444;2022-09-28T09:42:38;54.65;;;39.83;;
38083;SDS011;23894;51.466;7.444;2022-09-28T09:46:53;48.78;;;38.95;;
38083;SDS011;23894;51.466;7.444;2022-09-28T09:51:00;45.30;;;37.42;;
38083;SDS011;23894;51.466;7.444;2022-09-28T09:53:10;45.80;;;36.42;;
38083;SDS011;23894;51.466;7.444;2022-09-28T09:57:23;39.72;;;35.35;;
38083;SDS011;23894;51.466;7.444;2022-09-28T09:59:28;44.13;;;35.20;;
38083;SDS011;23894;51.466;7.444;2022-09-28T10:01:36;46.40;;;37.35;;
38083;SDS011;23894;51.466;7.444;2022-09-28T10:03:38;45.70;;;36.13;;
38083;SDS011;23894;51.466;7.444;2022-09-28T10:05:40;43.40;;;35.88;;
38083;SDS011;23894;51.466;7.444;2022-09-28T10:07:57;42.50;;;37.13;;
38083;SDS011;23894;51.466;7.444;2022-09-28T10:09:59;46.60;;;36.03;;
38083;SDS011;23894;51.466;7.444;2022-09-28T10:12:02;45.58;;;37.42;;
38083;SDS011;23894;51.466;7.444;2022-09-28T10:14:03;43.00;;;34.50;;
38083;SDS011;23894;51.466;7.444;2022-09-28T10:16:07;42.40;;;33.72;;
38083;SDS011;23894;51.466;7.444;2022-09-28T10:18:10;40.67;;;32.63;;
38083;SDS011;23894;51.466;7.444;2022-09-28T10:20:12;41.75;;;34.08;;
38083;SDS011;23894;51.466;7.444;2022-09-28T10:22:15;41.08;;;33.38;;
38083;SDS011;23894;51.466;7.444;2022-09-28T10:24:21;40.38;;;33.95;;
38083;SDS011;23894;51.466;7.444;2022-09-28T10:26:32;47.08;;;35.03;;
38083;SDS011;23894;51.466;7.444;2022-09-28T10:28:46;45.00;;;34.72;;
38083;SDS011;23894;51.466;7.444;2022-09-28T10:30:48;46.42;;;39.47;;
38083;SDS011;23894;51.466;7.444;2022-09-28T10:32:49;43.75;;;34.08;;
38083;SDS011;23894;51.466;7.444;2022-09-28T10:34:53;39.22;;;32.45;;
38083;SDS011;23894;51.466;7.444;2022-09-28T10:37:10;38.08;;;31.80;;
38083;SDS011;23894;51.466;7.444;2022-09-28T10:41:47;33.92;;;29.60;;
38083;SDS011;23894;51.466;7.444;2022-09-28T10:43:52;33.88;;;29.98;;
38083;SDS011;23894;51.466;7.444;2022-09-28T10:46:11;31.52;;;26.67;;
38083;SDS011;23894;51.466;7.444;2022-09-28T10:48:18;29.20;;;25.25;;
38083;SDS011;23894;51.466;7.444;2022-09-28T10:50:21;28.80;;;25.25;;
38083;SDS011;23894;51.466;7.444;2022-09-28T10:54:28;25.77;;;22.60;;
38083;SDS011;23894;51.466;7.444;2022-09-28T10:56:34;22.70;;;19.80;;
38083;SDS011;23894;51.466;7.444;2022-09-28T11:00:39;19.70;;;17.40;;
38083;SDS011;23894;51.466;7.444;2022-09-28T11:02:40;17.33;;;15.35;;
38083;SDS011;23894;51.466;7.444;2022-09-28T11:04:42;18.20;;;15.77;;
38083;SDS011;23894;51.466;7.444;2022-09-28T11:06:49;16.13;;;14.50;;
38083;SDS011;23894;51.466;7.444;2022-09-28T11:13:22;17.90;;;13.60;;
38083;SDS011;23894;51.466;7.444;2022-09-28T11:15:28;14.73;;;13.20;;
38083;SDS011;23894;51.466;7.444;2022-09-28T11:17:33;14.10;;;12.60;;
38083;SDS011;23894;51.466;7.444;2022-09-28T11:19:39;15.32;;;12.75;;
38083;SDS011;23894;51.466;7.444;2022-09-28T11:21:42;11.40;;;10.20;;
38083;SDS011;23894;51.466;7.444;2022-09-28T11:23:55;12.88;;;10.93;;
38083;SDS011;23894;51.466;7.444;2022-09-28T11:25:57;12.13;;;9.30;;
38083;SDS011;23894;51.466;7.444;2022-09-28T11:28:00;12.23;;;9.63;;
38083;SDS011;23894;51.466;7.444;2022-09-28T11:30:05;13.13;;;10.80;;
38083;SDS011;23894;51.466;7.444;2022-09-28T11:32:21;13.35;;;11.85;;
38083;SDS011;23894;51.466;7.444;2022-09-28T11:34:24;16.80;;;15.00;;
38083;SDS011;23894;51.466;7.444;2022-09-28T11:36:45;19.13;;;16.85;;
38083;SDS011;23894;51.466;7.444;2022-09-28T11:47:42;21.77;;;19.05;;
38083;SDS011;23894;51.466;7.444;2022-09-28T11:49:46;20.58;;;18.52;;
38083;SDS011;23894;51.466;7.444;2022-09-28T11:51:49;21.48;;;19.17;;
38083;SDS011;23894;51.466;7.444;2022-09-28T11:53:53;19.95;;;17.95;;
38083;SDS011;23894;51.466;7.444;2022-09-28T11:56:05;22.55;;;18.60;;
38083;SDS011;23894;51.466;7.444;2022-09-28T11:58:11;22.40;;;18.90;;
38083;SDS011;23894;51.466;7.444;2022-09-28T12:00:14;20.83;;;18.65;;
38083;SDS011;23894;51.466;7.444;2022-09-28T12:02:28;20.13;;;18.02;;
38083;SDS011;23894;51.466;7.444;2022-09-28T12:04:35;19.25;;;17.15;;
38083;SDS011;23894;51.466;7.444;2022-09-28T12:06:39;21.23;;;18.38;;
38083;SDS011;23894;51.466;7.444;2022-09-28T12:08:50;20.13;;;17.95;;
38083;SDS011;23894;51.466;7.444;2022-09-28T12:10:57;21.85;;;19.55;;
38083;SDS011;23894;51.466;7.444;2022-09-28T12:13:03;19.77;;;17.73;;
38083;SDS011;23894;51.466;7.444;2022-09-28T12:15:24;18.58;;;16.40;;
38083;SDS011;23894;51.466;7.444;2022-09-28T12:17:31;18.70;;;16.70;;
38083;SDS011;23894;51.466;7.444;2022-09-28T12:19:37;19.42;;;17.42;;
38083;SDS011;23894;51.466;7.444;2022-09-28T12:21:48;15.98;;;14.30;;
38083;SDS011;23894;51.466;7.444;2022-09-28T12:23:54;14.60;;;13.18;;
38083;SDS011;23894;51.466;7.444;2022-09-28T12:25:57;13.90;;;12.50;;
38083;SDS011;23894;51.466;7.444;2022-09-28T12:28:02;14.48;;;13.02;;
38083;SDS011;23894;51.466;7.444;2022-09-28T12:30:13;13.20;;;11.80;;
38083;SDS011;23894;51.466;7.444;2022-09-28T12:32:21;13.40;;;11.50;;
38083;SDS011;23894;51.466;7.444;2022-09-28T12:34:24;14.32;;;11.93;;
38083;SDS011;23894;51.466;7.444;2022-09-28T12:40:51;13.57;;;12.00;;
38083;SDS011;23894;51.466;7.444;2022-09-28T12:43:02;14.02;;;12.18;;
38083;SDS011;23894;51.466;7.444;2022-09-28T12:47:41;14.15;;;11.45;;
38083;SDS011;23894;51.466;7.444;2022-09-28T12:51:47;16.25;;;13.98;;
38083;SDS011;23894;51.466;7.444;2022-09-28T12:53:53;18.10;;;16.17;;
38083;SDS011;23894;51.466;7.444;2022-09-28T12:56:10;14.00;;;11.63;;
38083;SDS011;23894;51.466;7.444;2022-09-28T12:58:23;10.63;;;8.65;;
38083;SDS011;23894;51.466;7.444;2022-09-28T13:00:48;12.05;;;9.63;;
38083;SDS011;23894;51.466;7.444;2022-09-28T13:07:08;12.43;;;10.20;;
38083;SDS011;23894;51.466;7.444;2022-09-28T13:09:23;10.10;;;8.43;;
38083;SDS011;23894;51.466;7.444;2022-09-28T13:17:59;11.90;;;10.15;;
38083;SDS011;23894;51.466;7.444;2022-09-28T13:22:15;14.10;;;12.18;;
38083;SDS011;23894;51.466;7.444;2022-09-28T13:24:21;13.85;;;11.10;;
38083;SDS011;23894;51.466;7.444;2022-09-28T13:26:27;14.75;;;11.98;;
38083;SDS011;23894;51.466;7.444;2022-09-28T13:28:29;12.65;;;10.93;;
38083;SDS011;23894;51.466;7.444;2022-09-28T13:30:32;12.95;;;11.45;;
38083;SDS011;23894;51.466;7.444;2022-09-28T13:32:34;14.27;;;12.23;;
38083;SDS011;23894;51.466;7.444;2022-09-28T13:34:36;12.23;;;11.00;;
38083;SDS011;23894;51.466;7.444;2022-09-28T13:36:38;12.93;;;11.52;;
38083;SDS011;23894;51.466;7.444;2022-09-28T13:38:43;11.50;;;10.30;;
38083;SDS011;23894;51.466;7.444;2022-09-28T13:43:09;10.80;;;9.35;;
38083;SDS011;23894;51.466;7.444;2022-09-28T13:49:46;13.13;;;10.20;;
38083;SDS011;23894;51.466;7.444;2022-09-28T13:51:54;13.02;;;9.32;;
38083;SDS011;23894;51.466;7.444;2022-09-28T13:56:35;12.82;;;8.27;;
38083;SDS011;23894;51.466;7.444;2022-09-28T14:00:45;9.65;;;8.65;;
38083;SDS011;23894;51.466;7.444;2022-09-28T14:02:56;10.65;;;8.00;;
38083;SDS011;23894;51.466;7.444;2022-09-28T14:05:04;8.38;;;7.22;;
38083;SDS011;23894;51.466;7.444;2022-09-28T14:07:10;9.98;;;7.82;;
38083;SDS011;23894;51.466;7.444;2022-09-28T14:10:08;10.52;;;7.57;;
38083;SDS011;23894;51.466;7.444;2022-09-28T14:11:41;8.98;;;7.30;;
38083;SDS011;23894;51.466;7.444;2022-09-28T14:15:43;9.48;;;7.90;;
38083;SDS011;23894;51.466;7.444;2022-09-28T14:19:59;9.10;;;6.82;;
38083;SDS011;23894;51.466;7.444;2022-09-28T14:24:07;7.25;;;5.88;;
38083;SDS011;23894;51.466;7.444;2022-09-28T14:34:24;9.00;;;5.70;;
38083;SDS011;23894;51.466;7.444;2022-09-28T14:36:28;8.32;;;5.53;;
38083;SDS011;23894;51.466;7.444;2022-09-28T14:38:49;7.82;;;5.57;;
38083;SDS011;23894;51.466;7.444;2022-09-28T14:41:30;8.20;;;6.75;;
38083;SDS011;23894;51.466;7.444;2022-09-28T14:45:34;8.02;;;6.22;;